Eagle Turin — 9VMG6 — position and weather

sailwx.info

Track history (hours):
 
Tides and Currents Weather Stations Pressure Air Temp Water Temp Dewpoint Dewpoint Depression Visibility Wind Speed Wind Dir Waves Ship Positions

Eagle Turin

Last reported at 2014-Oct-20 11:00 UTC. Time now 2014-Oct-25 01:35 UTC.
Position N 22°00' W 069°06'.

Length 246 m; draft 8.5 m.

Type: Tanker. MMSI: 565770000.

Wind from 310 at 19 knots

Waves 1.5 meters (5 feet), 8 second period

Barometer 1018.0 mb
Air temperature 28.0 ° C
Visibility: greater than 5.4 NM
Dewpoint 23.9 ° C
Water temperature 28.0 ° C

Date/timePositionNaut miles runAvg speedWind from/ knotsBaromVisibWave heightAir tempDewpointWater temp
2014-Oct-20 11:00N 22°00' W 069°06'   310 / 191018.0 5.4 1.528.023.928.0
2014-Oct-17 03:33N 39°16' W 075°21'1414.5
2014-Oct-17 02:33N 39°27' W 075°33'1111.5
2014-Oct-17 01:33N 39°39' W 075°34'1010.3
2014-Oct-17 00:33N 39°47' W 075°27'3 2.8
2014-Oct-16 23:33N 39°49' W 075°24'0 0.0
2014-Oct-16 22:30N 39°49' W 075°24'0 0.0
2014-Oct-16 21:33N 39°49' W 075°23'0 0.0
2014-Oct-16 20:33N 39°49' W 075°24'0 0.0
2014-Oct-16 19:33N 39°49' W 075°24'6 0.2
2014-Oct-15 13:17N 39°51' W 075°16'0 0.1
2014-Oct-15 12:32N 39°51' W 075°16'6 6.3
2014-Oct-15 11:32N 39°49' W 075°24'14 9.6
2014-Oct-15 10:05N 39°37' W 075°35'910.1
2014-Oct-15 09:12N 39°29' W 075°34'2012.3
2014-Oct-15 07:33N 39°13' W 075°17'1211.9
2014-Oct-15 06:30N 39°02' W 075°09'1212.0
2014-Oct-15 05:32N 38°51' W 075°04'8 7.7
2014-Oct-15 04:33N 38°45' W 074°58'8 6.8
2014-Oct-15 03:22N 38°39' W 074°51'19 9.8
2014-Oct-15 01:26N 38°25' W 074°35'1 0.5
2014-Oct-14 23:17N 38°25' W 074°33'0 0.0
2014-Oct-14 22:23N 38°25' W 074°33'0 0.0
2014-Oct-14 21:08N 38°25' W 074°33'0 0.0
2014-Oct-14 20:32N 38°25' W 074°33'0 0.0
2014-Oct-14 19:26N 38°25' W 074°33'0 0.0
2014-Oct-14 18:23N 38°25' W 074°33'0 0.0
2014-Oct-14 17:32N 38°25' W 074°33'0 0.0
2014-Oct-14 16:26N 38°25' W 074°33'0 0.0
2014-Oct-14 13:08N 38°25' W 074°33'0 0.0
2014-Oct-14 12:14N 38°25' W 074°33'0 0.0
2014-Oct-14 05:32N 38°25' W 074°33'0 0.0
2014-Oct-13 11:11N 38°25' W 074°33'123 2.4
2014-Oct-11 07:12N 36°22' W 074°31'89 9.1
2014-Oct-10 21:24N 34°54' W 074°51'1314.9
2014-Oct-10 20:34N 34°43' W 074°59'3215.2
2014-Oct-10 18:27N 34°16' W 075°18'  
Track history (hours):
 
Tides and Currents Weather Stations Pressure Air Temp Water Temp Dewpoint Dewpoint Depression Visibility Wind Speed Wind Dir Waves Ship Positions

Eagle Turin

Last reported at 2014-Oct-20 11:00 UTC. Time now 2014-Oct-25 01:35 UTC.
Position N 22°00' W 069°06'.

Length 246 m; draft 8.5 m.

Type: Tanker. MMSI: 565770000.

Wind from 310 at 19 knots

Waves 1.5 meters (5 feet), 8 second period

Barometer 1018.0 mb
Air temperature 28.0 ° C
Visibility: greater than 5.4 NM
Dewpoint 23.9 ° C
Water temperature 28.0 ° C

Date/timePositionNaut miles runAvg speedWind from/ knotsBaromVisibWave heightAir tempDewpointWater temp
2014-Oct-20 11:00N 22°00' W 069°06'   310 / 191018.0 5.4 1.528.023.928.0
2014-Oct-17 03:33N 39°16' W 075°21'1414.5
2014-Oct-17 02:33N 39°27' W 075°33'1111.5
2014-Oct-17 01:33N 39°39' W 075°34'1010.3
2014-Oct-17 00:33N 39°47' W 075°27'3 2.8
2014-Oct-16 23:33N 39°49' W 075°24'0 0.0
2014-Oct-16 22:30N 39°49' W 075°24'0 0.0
2014-Oct-16 21:33N 39°49' W 075°23'0 0.0
2014-Oct-16 20:33N 39°49' W 075°24'0 0.0
2014-Oct-16 19:33N 39°49' W 075°24'6 0.2
2014-Oct-15 13:17N 39°51' W 075°16'0 0.1
2014-Oct-15 12:32N 39°51' W 075°16'6 6.3
2014-Oct-15 11:32N 39°49' W 075°24'14 9.6
2014-Oct-15 10:05N 39°37' W 075°35'910.1
2014-Oct-15 09:12N 39°29' W 075°34'2012.3
2014-Oct-15 07:33N 39°13' W 075°17'1211.9
2014-Oct-15 06:30N 39°02' W 075°09'1212.0
2014-Oct-15 05:32N 38°51' W 075°04'8 7.7
2014-Oct-15 04:33N 38°45' W 074°58'8 6.8
2014-Oct-15 03:22N 38°39' W 074°51'19 9.8
2014-Oct-15 01:26N 38°25' W 074°35'1 0.5
2014-Oct-14 23:17N 38°25' W 074°33'0 0.0
2014-Oct-14 22:23N 38°25' W 074°33'0 0.0
2014-Oct-14 21:08N 38°25' W 074°33'0 0.0
2014-Oct-14 20:32N 38°25' W 074°33'0 0.0
2014-Oct-14 19:26N 38°25' W 074°33'0 0.0
2014-Oct-14 18:23N 38°25' W 074°33'0 0.0
2014-Oct-14 17:32N 38°25' W 074°33'0 0.0
2014-Oct-14 16:26N 38°25' W 074°33'0 0.0
2014-Oct-14 13:08N 38°25' W 074°33'0 0.0
2014-Oct-14 12:14N 38°25' W 074°33'0 0.0
2014-Oct-14 05:32N 38°25' W 074°33'0 0.0
2014-Oct-13 11:11N 38°25' W 074°33'123 2.4
2014-Oct-11 07:12N 36°22' W 074°31'89 9.1
2014-Oct-10 21:24N 34°54' W 074°51'1314.9
2014-Oct-10 20:34N 34°43' W 074°59'3215.2
2014-Oct-10 18:27N 34°16' W 075°18'  

Dump ship's entire track history